Cumberland, WV

7:27 AM EDT on May 28, 2017 (GMT -0400)
Greater Cumberland Regional | | Change Station
Active Advisory: Dense Fog Advisory

Elev 774 ft 39.62 °N, 78.76 °W | Updated 14 minutes ago

Overcast
Overcast
61 °F
Feels Like 61 °F
N
4
Wind Variable Wind from SSE

Today
High -- | Low -- °F
--% Chance of Precip.
Yesterday
High -- | Low -- °F
Precip. -- in
Pressure 29.91 in
Visibility 2.5 miles
Clouds Overcast 100 ft
Dew Point 61 °F
Humidity 100%
Rainfall 0.00 in
Snow Depth Not available.
5:51 AM 8:33 PM
Waxing Crescent, 10% visible
METAR KCBE 281113Z AUTO 16003KT 2 1/2SM OVC001 16/16 A2991 RMK AO1
Pressure 29.91 in
Visibility 2.5 miles
Clouds Overcast 100 ft
Dew Point 61 °F
Humidity 100%
Rainfall 0.00 in
Snow Depth Not available.
5:51 AM 8:33 PM
Waxing Crescent, 10% visible
METAR KCBE 281113Z AUTO 16003KT 2 1/2SM OVC001 16/16 A2991 RMK AO1

Get Your Daily Forecast Email!

Thanks for signing up!

Be on the lookout for a verification email in your inbox.

You'll start receiving severe weather alerts in your inbox..

×

10-Day Weather Forecast

Almanac

Astronomy

May. 28, 2017 Rise Set
Actual Time
Civil Twilight
Nautical Twilight
Astronomical Twilight
Moon
Length of Visible Light
Length of Day
Tomorrow will be .
, % of the Moon is Illuminated

Today's Extremes

State Highs State Lows

Community

WunderPhotos

Category 6

Welcome to Category 6. This is the collective home for Weather Underground's featured writeups by Dr. Jeff Masters (right), Bob Henson (left), Chris Burt, and other regular contributors.

Nearby

Air Quality

  Air Quality AQ Index Pollutant
Not available.

Snow Depth

Station Depth Elevation

Earthquake Activity

City Distance Mag. Time & Date
Minimum magnitude displayed is 2.5.

Coastal Water Temperatures

Place Temperature

Stations

Nearby Weather Stations

Station Location Temp. Windchill Dew Point Humidity Wind Precip. Elev Updated Type
                   

Watches & Warnings

Dense Fog Advisory
Issued: 5:08 AM EDT May. 28, 2017 – National Weather Service

... Dense fog advisory now in effect until 8 am EDT this morning...

* visibilities... one quarter mile or less at times.

* Impacts... limited visibilities will make travel very difficult.

Precautionary/preparedness actions...

A dense fog advisory means visibilities will frequently be
reduced to less than one quarter mile. If driving, slow down, use
your headlights, and leave plenty of distance ahead of you.